WHTO2: S Canadian Riv, Whitefield, OK

Data processed at Sat Sep 16 2017 23:50


All information presented herein is the property of the government of the United States of America and may be revised or deleted at any time without prior notice.
Dissemination of this information without the expressed written consent of the Public Affairs Office, Tulsa District U.S. Army Corps of Engineers is strictly prohibited.
These data are gathered electronically and, as presented, have not undergone any form of quality control. These data are not guaranteed to be valid or correct.
Go to home page.
Go to station list.

Upstream stations:

Downstream station:
Previous Day
Next Day
Current Day
    
SHEF ID:       WHTO2     Canadian River near Whitefield,
STATION TYPE:  

               PRECIP     STAGE  RIV-FLOW  BAT-LOAD
                   in        ft       cfs      volt
              Ccp-Rev   Ccp-Rev   Ccp-Rev   Ccp-Rev
(US/Central)
09/14 00:00      0.00      4.63      5678     12.73
09/14 01:00      0.00      4.12      4350     12.73
09/14 02:00      0.00      3.68      3365     12.65
09/14 03:00      0.00      3.30      2619     12.65
09/14 04:00      0.00      3.00      2082     12.65
09/14 05:00      0.00      2.78      1702     12.65
09/14 06:00      0.00      2.62      1428     12.65
09/14 07:00      0.00      2.49      1230     12.57
09/14 08:00      0.00      2.39      1089     12.57
09/14 09:00      0.00      2.31       974     12.73
09/14 10:00      0.00      2.24       882     13.21
09/14 11:00      0.00      2.18       808     13.44
09/14 12:00      0.00      2.12       739     13.37
09/14 13:00      0.00      2.07       685     13.60
09/14 14:00      0.00      2.02       634     13.68
09/14 15:00      0.00      1.99       605     13.60
09/14 16:00      0.00      1.95       569     13.29
09/14 17:00      0.00      1.94       560     13.05
09/14 18:00      0.00      3.92      3888     13.05
09/14 19:00      0.00      5.56      8574     12.97
09/14 20:00      0.00      5.99     10105     12.81
09/14 21:00      0.00      5.76      9267     12.81
09/14 22:00      0.00      5.28      7656     12.73
09/14 23:00      0.00      4.77      6081     12.73